Time;durP1;ratioP1;P1;durP2;ratioP2;P2;SDS_P1;SDS_P2;PMS_P1;PMS_P2;Temp;Humidity;BMP_temperature;BMP_pressure;BME280_temperature;BME280_humidity;BME280_pressure;Samples;Min_cycle;Max_cycle;Signal;HPM_P1;HPM_P2
2023/05/11 00:01:59;;;;;;;0.73;0.47;;;;;;;;;;10267924;28;20044;-89
2023/05/11 00:07:03;;;;;;;0.30;0.30;;;;;;;;;;10195978;28;20608;-88
2023/05/11 00:12:08;;;;;;;0.47;0.40;;;;;;;;;;10184105;28;20056;-90
2023/05/11 00:17:12;;;;;;;0.30;0.30;;;;;;;;;;10198817;28;20052;-89
2023/05/11 00:22:15;;;;;;;0.77;0.30;;;;;;;;;;10206653;28;20136;-92
2023/05/11 00:27:20;;;;;;;1.02;0.40;;;;;;;;;;10208854;28;20068;-88
2023/05/11 00:32:23;;;;;;;0.57;0.32;;;;;;;;;;10163018;28;20099;-89
2023/05/11 00:37:27;;;;;;;0.77;0.35;;;;;;;;;;10214079;28;20100;-88
2023/05/11 00:42:32;;;;;;;1.30;0.50;;;;;;;;;;10188235;28;20044;-88
2023/05/11 00:47:35;;;;;;;0.38;0.35;;;;;;;;;;10203155;28;20058;-90
2023/05/11 00:52:38;;;;;;;0.40;0.40;;;;;;;;;;10213291;28;20076;-88
2023/05/11 00:57:44;;;;;;;0.63;0.40;;;;;;;;;;10240126;28;20053;-89
2023/05/11 01:02:48;;;;;;;1.70;0.40;;;;;;;;;;10215402;28;20048;-88
2023/05/11 01:08:00;;;;;;;1.08;0.50;;;;;;;;;;10212625;28;20056;-88
2023/05/11 01:13:22;;;;;;;0.40;0.30;;;;;;;;;;10205121;28;20063;-88
2023/05/11 01:18:30;;;;;;;1.15;0.20;;;;;;;;;;10211266;28;20054;-89
2023/05/11 01:24:08;;;;;;;0.60;0.30;;;;;;;;;;10253632;28;20103;-91
2023/05/11 01:29:43;;;;;;;0.43;0.40;;;;;;;;;;10190573;28;20096;-88
2023/05/11 01:34:50;;;;;;;0.75;0.40;;;;;;;;;;10209581;28;20052;-91
2023/05/11 01:39:57;;;;;;;0.70;0.50;;;;;;;;;;10208809;28;20067;-88
2023/05/11 01:45:01;;;;;;;0.60;0.35;;;;;;;;;;10195393;28;20231;-89
2023/05/11 01:50:09;;;;;;;0.40;0.40;;;;;;;;;;10226848;28;20052;-88
2023/05/11 01:55:15;;;;;;;0.60;0.30;;;;;;;;;;10221646;28;20055;-89
2023/05/11 02:00:19;;;;;;;3.40;0.40;;;;;;;;;;10170947;28;20132;-88
2023/05/11 02:05:28;;;;;;;1.33;0.28;;;;;;;;;;10213770;28;20060;-89
2023/05/11 02:10:33;;;;;;;0.28;0.28;;;;;;;;;;10214089;28;20048;-89
2023/05/11 02:15:40;;;;;;;1.40;0.30;;;;;;;;;;10229158;28;20049;-89
2023/05/11 02:20:46;;;;;;;0.82;0.40;;;;;;;;;;10253603;28;20052;-89
2023/05/11 02:25:51;;;;;;;1.52;0.40;;;;;;;;;;10202803;28;20187;-89
2023/05/11 02:30:58;;;;;;;0.73;0.50;;;;;;;;;;10249827;28;20052;-89
2023/05/11 02:36:05;;;;;;;0.40;0.40;;;;;;;;;;10200071;28;20135;-91
2023/05/11 02:41:16;;;;;;;0.85;0.60;;;;;;;;;;10189974;28;20056;-90
2023/05/11 02:46:23;;;;;;;0.40;0.40;;;;;;;;;;10212016;28;20414;-88
2023/05/11 02:51:32;;;;;;;1.05;0.95;;;;;;;;;;10202706;28;20115;-89
2023/05/11 02:56:36;;;;;;;2.15;0.88;;;;;;;;;;10212054;28;20052;-89
2023/05/11 03:01:40;;;;;;;0.57;0.30;;;;;;;;;;10204020;28;20106;-89
2023/05/11 03:06:46;;;;;;;0.40;0.40;;;;;;;;;;10243551;28;20048;-90
2023/05/11 03:11:50;;;;;;;1.15;0.47;;;;;;;;;;10204379;28;20127;-88
2023/05/11 03:16:56;;;;;;;3.10;0.30;;;;;;;;;;10200978;28;20109;-88
2023/05/11 03:22:02;;;;;;;1.40;0.40;;;;;;;;;;10206996;28;20051;-89
2023/05/11 03:27:07;;;;;;;0.50;0.50;;;;;;;;;;10213749;28;20295;-90
2023/05/11 03:32:11;;;;;;;1.23;0.60;;;;;;;;;;10208851;28;20293;-88
2023/05/11 03:37:19;;;;;;;0.47;0.45;;;;;;;;;;10215191;28;20055;-92
2023/05/11 03:42:26;;;;;;;0.90;0.52;;;;;;;;;;10199613;28;20201;-88
2023/05/11 03:47:32;;;;;;;0.50;0.40;;;;;;;;;;10194211;28;20393;-89
2023/05/11 03:52:38;;;;;;;;;;;;;;;;;;10194348;28;20041;-89
2023/05/11 03:57:42;;;;;;;1.10;0.60;;;;;;;;;;10214210;28;19923;-92
2023/05/11 04:02:45;;;;;;;0.70;0.70;;;;;;;;;;10207958;28;20040;-89
2023/05/11 04:07:50;;;;;;;0.85;0.68;;;;;;;;;;10222064;28;20463;-89
2023/05/11 04:12:54;;;;;;;2.15;0.90;;;;;;;;;;10211637;28;20045;-88
2023/05/11 04:17:58;;;;;;;1.98;0.90;;;;;;;;;;10183035;28;20716;-89
2023/05/11 04:23:03;;;;;;;1.52;1.00;;;;;;;;;;10229852;28;20174;-90
2023/05/11 04:28:06;;;;;;;3.38;1.30;;;;;;;;;;10210876;28;20092;-89
2023/05/11 04:33:11;;;;;;;1.15;1.05;;;;;;;;;;10230739;28;20127;-90
2023/05/11 04:38:16;;;;;;;2.63;0.90;;;;;;;;;;10212825;28;20110;-89
2023/05/11 04:43:19;;;;;;;2.78;1.08;;;;;;;;;;10232238;28;20057;-89
2023/05/11 04:48:23;;;;;;;1.17;0.93;;;;;;;;;;10205416;28;20056;-89
2023/05/11 04:53:34;;;;;;;1.60;1.35;;;;;;;;;;10216350;28;20044;-89
2023/05/11 04:58:38;;;;;;;1.15;1.02;;;;;;;;;;10208935;28;20044;-89
2023/05/11 05:03:42;;;;;;;1.90;1.50;;;;;;;;;;10212266;28;20041;-90
2023/05/11 05:08:48;;;;;;;2.75;1.13;;;;;;;;;;10215344;28;20084;-91
2023/05/11 05:13:52;;;;;;;1.50;1.17;;;;;;;;;;10212172;28;20123;-89
2023/05/11 05:18:58;;;;;;;1.90;1.30;;;;;;;;;;10165540;28;20106;-90
2023/05/11 05:24:05;;;;;;;1.42;1.02;;;;;;;;;;10202818;28;20067;-89
2023/05/11 05:29:11;;;;;;;;;;;;;;;;;;10215464;28;20057;-90
2023/05/11 05:34:15;;;;;;;1.25;1.15;;;;;;;;;;10219179;28;19930;-91
2023/05/11 05:39:20;;;;;;;1.85;1.50;;;;;;;;;;10200050;28;20077;-89
2023/05/11 05:44:24;;;;;;;2.45;1.05;;;;;;;;;;10208685;28;20632;-88
2023/05/11 05:49:29;;;;;;;0.77;0.77;;;;;;;;;;10229684;28;20048;-90
2023/05/11 05:54:37;;;;;;;1.10;1.00;;;;;;;;;;10207933;28;20049;-89
2023/05/11 05:59:40;;;;;;;1.10;0.88;;;;;;;;;;10211947;28;20449;-89
2023/05/11 06:04:44;;;;;;;2.28;1.20;;;;;;;;;;10199295;28;20045;-89
2023/05/11 06:09:49;;;;;;;0.50;0.50;;;;;;;;;;10198250;28;20048;-88
2023/05/11 06:14:53;;;;;;;0.70;0.57;;;;;;;;;;10198552;28;20468;-88
2023/05/11 06:19:56;;;;;;;0.60;0.60;;;;;;;;;;10186478;28;20084;-87
2023/05/11 06:25:05;;;;;;;0.50;0.43;;;;;;;;;;10195403;28;20055;-87
2023/05/11 06:30:10;;;;;;;0.80;0.70;;;;;;;;;;10211939;28;20060;-87
2023/05/11 06:35:15;;;;;;;0.50;0.50;;;;;;;;;;10206376;28;20052;-86
2023/05/11 06:40:20;;;;;;;0.80;0.80;;;;;;;;;;10211813;28;20048;-86
2023/05/11 06:45:24;;;;;;;1.08;0.85;;;;;;;;;;10217620;28;20044;-86
2023/05/11 06:50:29;;;;;;;1.00;0.90;;;;;;;;;;10217083;28;20075;-87
2023/05/11 06:55:33;;;;;;;0.80;0.80;;;;;;;;;;10147710;28;20041;-87
2023/05/11 07:00:37;;;;;;;0.80;0.75;;;;;;;;;;10205124;28;20048;-87
2023/05/11 07:05:41;;;;;;;1.83;0.68;;;;;;;;;;10213129;28;20127;-87
2023/05/11 07:10:48;;;;;;;0.85;0.75;;;;;;;;;;10212079;28;20048;-91
2023/05/11 07:15:52;;;;;;;1.25;0.80;;;;;;;;;;10207818;28;20048;-89
2023/05/11 07:20:57;;;;;;;0.63;0.63;;;;;;;;;;10210446;28;20061;-89
2023/05/11 07:26:07;;;;;;;0.80;0.80;;;;;;;;;;10207249;28;20457;-89
2023/05/11 07:31:11;;;;;;;1.70;1.60;;;;;;;;;;10204771;28;20135;-89
2023/05/11 07:36:15;;;;;;;0.98;0.90;;;;;;;;;;10135205;28;20068;-89
2023/05/11 07:41:21;;;;;;;1.13;0.90;;;;;;;;;;10135080;28;20041;-89
2023/05/11 07:46:25;;;;;;;2.25;1.58;;;;;;;;;;10200495;28;20139;-89
2023/05/11 07:51:28;;;;;;;0.90;0.85;;;;;;;;;;10192289;28;20080;-89
2023/05/11 07:56:33;;;;;;;1.10;1.00;;;;;;;;;;10200969;28;20056;-88
2023/05/11 08:01:37;;;;;;;1.48;0.95;;;;;;;;;;10157204;28;20692;-88
2023/05/11 08:06:40;;;;;;;2.58;1.42;;;;;;;;;;10198148;28;20394;-89
2023/05/11 08:11:45;;;;;;;1.52;1.33;;;;;;;;;;10201936;28;20525;-88
2023/05/11 08:16:49;;;;;;;1.20;1.10;;;;;;;;;;10130354;28;20048;-91
2023/05/11 08:21:52;;;;;;;1.58;1.48;;;;;;;;;;10202378;28;20498;-88
2023/05/11 08:26:57;;;;;;;2.20;1.50;;;;;;;;;;10167154;28;20053;-89
2023/05/11 08:32:00;;;;;;;2.90;2.03;;;;;;;;;;10193258;28;20060;-89
2023/05/11 08:37:04;;;;;;;1.25;1.15;;;;;;;;;;10211800;28;20127;-88
2023/05/11 08:42:12;;;;;;;2.85;1.15;;;;;;;;;;10197723;28;20091;-87
2023/05/11 08:47:17;;;;;;;1.30;1.08;;;;;;;;;;10139546;28;20049;-88
2023/05/11 08:52:26;;;;;;;1.58;1.20;;;;;;;;;;10212784;28;20083;-87
2023/05/11 08:57:33;;;;;;;1.40;1.30;;;;;;;;;;10209207;28;20052;-86
2023/05/11 09:02:37;;;;;;;1.83;1.55;;;;;;;;;;10200254;28;20627;-85
2023/05/11 09:07:42;;;;;;;1.75;1.30;;;;;;;;;;10133769;28;20045;-85
2023/05/11 09:12:47;;;;;;;1.30;1.20;;;;;;;;;;10217466;28;20131;-88
2023/05/11 09:17:50;;;;;;;1.63;1.30;;;;;;;;;;10207986;28;20057;-88
2023/05/11 09:22:55;;;;;;;1.50;1.02;;;;;;;;;;10206410;28;20686;-88
2023/05/11 09:28:00;;;;;;;1.52;1.42;;;;;;;;;;10147323;28;20076;-87
2023/05/11 09:33:04;;;;;;;2.83;1.10;;;;;;;;;;10207376;28;20060;-88
2023/05/11 09:38:09;;;;;;;1.80;1.30;;;;;;;;;;10215153;28;20052;-90
2023/05/11 09:43:22;;;;;;;2.22;2.00;;;;;;;;;;10203816;28;20052;-87
2023/05/11 09:48:31;;;;;;;1.75;1.52;;;;;;;;;;10205559;28;20048;-87
2023/05/11 09:53:41;;;;;;;1.73;1.20;;;;;;;;;;10204711;28;20059;-85
2023/05/11 09:58:49;;;;;;;4.00;2.60;;;;;;;;;;10208416;28;20045;-88
2023/05/11 10:03:53;;;;;;;1.50;1.38;;;;;;;;;;10196133;28;20052;-87
2023/05/11 10:09:09;;;;;;;2.35;1.85;;;;;;;;;;10145739;28;20506;-87
2023/05/11 10:14:16;;;;;;;1.98;1.58;;;;;;;;;;10194379;28;20053;-88
2023/05/11 10:19:21;;;;;;;2.20;1.65;;;;;;;;;;10127836;28;20058;-89
2023/05/11 10:24:24;;;;;;;1.60;1.50;;;;;;;;;;10195458;28;20063;-87
2023/05/11 10:29:31;;;;;;;1.88;1.35;;;;;;;;;;10198285;28;20055;-87
2023/05/11 10:34:35;;;;;;;1.40;1.08;;;;;;;;;;10187125;28;20045;-87
2023/05/11 10:39:39;;;;;;;1.85;1.42;;;;;;;;;;10255723;28;20524;-87
2023/05/11 10:45:04;;;;;;;1.30;1.20;;;;;;;;;;10194502;28;20052;-87
2023/05/11 10:50:23;;;;;;;1.13;1.00;;;;;;;;;;10187335;28;20056;-86
2023/05/11 10:55:48;;;;;;;1.90;1.48;;;;;;;;;;10201862;28;20064;-88
2023/05/11 11:01:31;;;;;;;3.57;2.00;;;;;;;;;;10201713;28;20143;-87
2023/05/11 11:06:36;;;;;;;1.23;1.13;;;;;;;;;;10210290;28;20383;-86
2023/05/11 11:11:41;;;;;;;1.20;1.10;;;;;;;;;;10136186;28;20056;-86
2023/05/11 11:32:37;;;;;;;2.35;1.75;;;;;;;;;;10436386;28;20388;-86
2023/05/11 11:38:00;;;;;;;2.15;1.38;;;;;;;;;;10392417;28;20053;-87
2023/05/11 11:43:12;;;;;;;3.08;1.75;;;;;;;;;;10386036;28;20052;-87
2023/05/11 11:48:22;;;;;;;2.45;1.75;;;;;;;;;;10393910;28;20112;-88
2023/05/11 11:53:58;;;;;;;2.55;1.63;;;;;;;;;;10391979;28;20076;-86
2023/05/11 11:59:04;;;;;;;2.13;1.42;;;;;;;;;;10283429;28;20599;-87
2023/05/11 12:04:46;;;;;;;1.48;1.02;;;;;;;;;;10363034;28;20072;-86
2023/05/11 12:09:51;;;;;;;3.47;2.00;;;;;;;;;;10390044;28;20045;-86
2023/05/11 12:14:55;;;;;;;1.52;1.38;;;;;;;;;;10394467;28;20073;-86
2023/05/11 12:20:14;;;;;;;3.25;1.40;;;;;;;;;;10388311;28;20137;-87
2023/05/11 12:25:19;;;;;;;1.98;1.13;;;;;;;;;;10387443;28;20053;-87
2023/05/11 12:30:25;;;;;;;3.38;2.20;;;;;;;;;;10379181;28;20053;-86
2023/05/11 12:35:31;;;;;;;3.72;2.00;;;;;;;;;;10365031;28;20070;-87
2023/05/11 12:40:35;;;;;;;2.67;2.22;;;;;;;;;;10363545;28;20092;-84
2023/05/11 12:45:38;;;;;;;1.98;1.70;;;;;;;;;;10361312;28;20057;-84
2023/05/11 12:50:44;;;;;;;1.70;1.60;;;;;;;;;;10358119;28;20048;-84
2023/05/11 12:55:58;;;;;;;3.22;1.48;;;;;;;;;;10357413;28;20041;-84
2023/05/11 13:01:01;;;;;;;3.35;1.85;;;;;;;;;;10351573;28;20048;-84
2023/05/11 13:06:08;;;;;;;1.98;1.70;;;;;;;;;;10390247;28;20045;-84
2023/05/11 13:11:18;;;;;;;2.20;1.45;;;;;;;;;;10381415;28;20041;-84
2023/05/11 13:16:26;;;;;;;1.48;1.30;;;;;;;;;;10376318;28;20052;-84
2023/05/11 13:21:32;;;;;;;1.80;1.60;;;;;;;;;;10407336;28;20064;-84
2023/05/11 13:26:35;;;;;;;1.92;1.35;;;;;;;;;;10416197;28;20509;-84
2023/05/11 13:31:46;;;;;;;1.80;1.40;;;;;;;;;;10385118;28;20510;-84
2023/05/11 13:36:59;;;;;;;2.42;1.33;;;;;;;;;;10409417;28;20181;-84
2023/05/11 13:42:03;;;;;;;1.40;1.00;;;;;;;;;;10393050;28;20665;-84
2023/05/11 13:47:06;;;;;;;1.60;1.10;;;;;;;;;;10382581;28;20048;-84
2023/05/11 13:52:11;;;;;;;1.88;1.42;;;;;;;;;;10383890;28;20120;-85
2023/05/11 13:57:24;;;;;;;1.38;1.27;;;;;;;;;;10393784;28;20050;-85
2023/05/11 14:02:27;;;;;;;1.58;1.40;;;;;;;;;;10422387;28;20087;-84
2023/05/11 14:07:32;;;;;;;1.30;1.20;;;;;;;;;;10394592;28;20112;-85
2023/05/11 14:12:42;;;;;;;1.70;1.60;;;;;;;;;;10378111;28;20038;-84
2023/05/11 14:17:45;;;;;;;1.30;1.20;;;;;;;;;;10385293;28;20268;-86
2023/05/11 14:22:53;;;;;;;1.58;1.48;;;;;;;;;;10368105;28;20061;-84
2023/05/11 14:27:57;;;;;;;4.90;2.00;;;;;;;;;;10392645;28;20036;-84
2023/05/11 14:33:00;;;;;;;2.00;1.80;;;;;;;;;;10412880;28;20080;-84
2023/05/11 14:38:06;;;;;;;1.77;1.50;;;;;;;;;;10390286;28;20056;-84
2023/05/11 14:43:09;;;;;;;2.05;1.85;;;;;;;;;;10391231;28;20071;-84
2023/05/11 14:48:13;;;;;;;3.97;1.98;;;;;;;;;;10386645;28;20042;-84
2023/05/11 14:53:18;;;;;;;3.00;2.28;;;;;;;;;;10408423;28;20068;-84
2023/05/11 14:58:21;;;;;;;2.05;1.85;;;;;;;;;;10398095;28;20071;-85
2023/05/11 15:03:25;;;;;;;2.30;2.10;;;;;;;;;;10400590;28;20045;-85
2023/05/11 15:08:29;;;;;;;2.30;1.88;;;;;;;;;;10389757;28;20661;-84
2023/05/11 15:13:33;;;;;;;2.03;1.88;;;;;;;;;;10433356;28;20565;-84
2023/05/11 15:18:36;;;;;;;2.67;2.30;;;;;;;;;;10393410;28;20393;-84
2023/05/11 15:23:41;;;;;;;2.60;2.40;;;;;;;;;;10418318;28;20044;-84
2023/05/11 15:28:44;;;;;;;3.00;2.10;;;;;;;;;;10393479;28;20041;-84
2023/05/11 15:33:47;;;;;;;1.80;1.58;;;;;;;;;;10387638;28;20068;-84
2023/05/11 15:38:52;;;;;;;1.92;1.73;;;;;;;;;;10365068;28;20420;-84
2023/05/11 15:43:55;;;;;;;3.72;1.85;;;;;;;;;;10388090;28;20153;-84
2023/05/11 15:49:01;;;;;;;2.03;1.83;;;;;;;;;;10381166;28;20052;-86
2023/05/11 15:54:06;;;;;;;1.80;1.70;;;;;;;;;;10401473;28;20412;-86
2023/05/11 15:59:10;;;;;;;3.47;1.50;;;;;;;;;;10386427;28;20033;-84
2023/05/11 16:04:13;;;;;;;3.05;1.45;;;;;;;;;;10392588;28;20045;-85
2023/05/11 16:09:18;;;;;;;2.60;1.42;;;;;;;;;;10409357;28;20045;-84
2023/05/11 16:14:24;;;;;;;1.27;0.90;;;;;;;;;;10387936;28;20129;-85
2023/05/11 16:19:28;;;;;;;1.13;1.00;;;;;;;;;;10395107;28;20045;-84
2023/05/11 16:24:35;;;;;;;1.05;0.93;;;;;;;;;;10426395;28;20071;-84
2023/05/11 16:29:38;;;;;;;1.88;1.20;;;;;;;;;;10386384;28;20048;-84
2023/05/11 16:34:43;;;;;;;1.25;1.15;;;;;;;;;;10405118;28;20051;-85
2023/05/11 16:39:49;;;;;;;1.88;1.20;;;;;;;;;;10406200;28;20444;-84
2023/05/11 16:44:53;;;;;;;1.25;1.15;;;;;;;;;;10400394;28;20061;-84
2023/05/11 16:49:56;;;;;;;1.85;1.13;;;;;;;;;;10389175;28;20044;-85
2023/05/11 16:55:01;;;;;;;1.20;1.10;;;;;;;;;;10404007;28;20810;-86
2023/05/11 17:00:13;;;;;;;1.80;1.30;;;;;;;;;;10414434;28;20041;-86
2023/05/11 17:05:41;;;;;;;1.20;1.10;;;;;;;;;;10371967;23;20117;-85
2023/05/11 17:10:50;;;;;;;2.45;1.50;;;;;;;;;;10237614;28;20730;-86
2023/05/11 17:15:58;;;;;;;1.27;1.17;;;;;;;;;;10248125;28;20055;-86
2023/05/11 17:21:04;;;;;;;;;;;;;;;;;;10225298;28;20066;-86
2023/05/11 17:26:17;;;;;;;1.65;1.27;;;;;;;;;;10228848;28;20391;-87
2023/05/11 17:31:30;;;;;;;1.50;1.40;;;;;;;;;;10224394;28;20074;-86
2023/05/11 17:36:39;;;;;;;1.88;1.77;;;;;;;;;;10246824;28;20576;-88
2023/05/11 17:41:48;;;;;;;1.65;1.45;;;;;;;;;;10230341;28;20043;-86
2023/05/11 17:46:56;;;;;;;1.60;1.38;;;;;;;;;;10239757;28;20043;-89
2023/05/11 17:52:00;;;;;;;1.83;1.60;;;;;;;;;;10226921;28;20075;-88
2023/05/11 17:57:06;;;;;;;1.85;1.65;;;;;;;;;;10219914;28;20102;-89
2023/05/11 18:02:12;;;;;;;1.50;1.33;;;;;;;;;;10237094;28;20054;-88
2023/05/11 18:07:24;;;;;;;2.05;1.70;;;;;;;;;;10261791;28;20064;-90
2023/05/11 18:12:42;;;;;;;1.40;1.30;;;;;;;;;;10283497;28;20042;-86
2023/05/11 18:18:01;;;;;;;1.80;1.40;;;;;;;;;;10255608;28;20061;-86
2023/05/11 18:23:11;;;;;;;3.17;1.80;;;;;;;;;;10251924;28;20059;-85
2023/05/11 18:28:22;;;;;;;1.60;1.38;;;;;;;;;;10260893;28;20050;-88
2023/05/11 18:33:26;;;;;;;2.08;1.45;;;;;;;;;;10262914;28;20042;-88
2023/05/11 18:38:35;;;;;;;1.45;1.35;;;;;;;;;;10263332;28;20452;-89
2023/05/11 18:43:51;;;;;;;1.15;1.05;;;;;;;;;;10266574;28;20687;-88
2023/05/11 18:48:56;;;;;;;1.40;1.30;;;;;;;;;;10275638;28;20050;-88
2023/05/11 18:54:00;;;;;;;1.60;1.38;;;;;;;;;;10264475;28;20098;-88
2023/05/11 18:59:06;;;;;;;1.30;1.20;;;;;;;;;;10254668;28;20043;-88
2023/05/11 19:04:15;;;;;;;1.80;1.20;;;;;;;;;;10246751;28;20047;-88
2023/05/11 19:09:26;;;;;;;1.55;1.20;;;;;;;;;;10251334;28;20090;-88
2023/05/11 19:14:33;;;;;;;1.60;1.30;;;;;;;;;;10279055;28;20050;-88
2023/05/11 19:19:38;;;;;;;1.85;1.65;;;;;;;;;;10258609;28;20141;-88
2023/05/11 19:24:45;;;;;;;2.00;1.63;;;;;;;;;;10264212;28;20070;-88
2023/05/11 19:29:53;;;;;;;1.55;1.45;;;;;;;;;;10268471;28;20051;-90
2023/05/11 19:35:05;;;;;;;1.70;1.60;;;;;;;;;;10257014;28;20043;-89
2023/05/11 19:40:12;;;;;;;1.58;1.30;;;;;;;;;;10261344;28;20057;-88
2023/05/11 19:45:42;;;;;;;1.67;1.58;;;;;;;;;;10270073;28;20046;-89
2023/05/11 19:50:48;;;;;;;2.28;1.50;;;;;;;;;;10267151;28;20066;-88
2023/05/11 19:56:04;;;;;;;2.10;1.48;;;;;;;;;;10289115;28;20046;-88
2023/05/11 20:01:24;;;;;;;2.17;1.55;;;;;;;;;;10262241;28;20043;-88
2023/05/11 20:06:28;;;;;;;1.83;1.60;;;;;;;;;;10268491;28;20050;-88
2023/05/11 20:11:50;;;;;;;3.17;1.70;;;;;;;;;;10252030;28;20133;-88
2023/05/11 20:16:59;;;;;;;1.42;1.33;;;;;;;;;;10269152;28;20047;-89
2023/05/11 20:22:10;;;;;;;5.18;2.05;;;;;;;;;;10269076;28;20523;-88
2023/05/11 20:27:29;;;;;;;3.22;2.10;;;;;;;;;;10257274;28;20140;-88
2023/05/11 20:32:43;;;;;;;1.88;1.73;;;;;;;;;;10269563;28;20043;-88
2023/05/11 20:37:58;;;;;;;3.47;1.60;;;;;;;;;;10275923;28;20051;-88
2023/05/11 20:43:26;;;;;;;1.83;1.38;;;;;;;;;;10269581;28;20043;-88
2023/05/11 20:48:41;;;;;;;2.08;1.48;;;;;;;;;;10269614;28;20122;-89
2023/05/11 20:53:50;;;;;;;1.75;1.50;;;;;;;;;;10268327;28;20058;-88
2023/05/11 20:59:05;;;;;;;2.00;1.77;;;;;;;;;;10266274;28;20137;-88
2023/05/11 21:04:10;;;;;;;1.98;1.77;;;;;;;;;;10269928;28;20047;-88
2023/05/11 21:09:20;;;;;;;2.20;1.60;;;;;;;;;;10282790;28;20043;-90
2023/05/11 21:14:30;;;;;;;2.63;1.75;;;;;;;;;;10267416;28;20059;-88
2023/05/11 21:19:42;;;;;;;2.20;1.73;;;;;;;;;;10267034;28;20054;-88
2023/05/11 21:24:51;;;;;;;1.77;1.27;;;;;;;;;;10267763;28;20101;-88
2023/05/11 21:29:59;;;;;;;3.88;1.50;;;;;;;;;;10284785;28;20118;-89
2023/05/11 21:35:13;;;;;;;2.55;1.80;;;;;;;;;;10258154;28;20054;-88
2023/05/11 21:40:18;;;;;;;3.53;1.52;;;;;;;;;;10266820;28;20062;-88
2023/05/11 21:45:25;;;;;;;2.03;1.45;;;;;;;;;;10267315;28;20047;-89
2023/05/11 21:50:37;;;;;;;2.10;1.67;;;;;;;;;;10267978;28;20428;-89
2023/05/11 21:55:48;;;;;;;2.90;1.77;;;;;;;;;;10267546;28;20755;-88
2023/05/11 22:00:55;;;;;;;1.42;1.33;;;;;;;;;;10265913;28;20480;-88
2023/05/11 22:06:01;;;;;;;3.70;1.75;;;;;;;;;;10265203;28;20105;-89
2023/05/11 22:11:09;;;;;;;2.20;1.50;;;;;;;;;;10266032;28;20110;-88
2023/05/11 22:16:17;;;;;;;2.38;1.52;;;;;;;;;;10262852;28;20043;-90
2023/05/11 22:21:29;;;;;;;2.35;1.50;;;;;;;;;;10266072;28;20649;-89
2023/05/11 22:26:42;;;;;;;1.60;1.50;;;;;;;;;;10266697;28;20185;-88
2023/05/11 22:31:51;;;;;;;1.48;1.30;;;;;;;;;;10265560;28;20066;-89
2023/05/11 22:37:00;;;;;;;1.83;1.35;;;;;;;;;;10258702;28;20134;-89
2023/05/11 22:42:12;;;;;;;1.70;1.27;;;;;;;;;;10264776;28;20059;-88
2023/05/11 22:47:23;;;;;;;1.50;1.40;;;;;;;;;;10264838;28;20082;-90
2023/05/11 22:52:29;;;;;;;1.85;1.67;;;;;;;;;;10264729;28;20039;-88
2023/05/11 22:57:38;;;;;;;1.98;1.60;;;;;;;;;;10264815;28;20047;-88
2023/05/11 23:02:46;;;;;;;1.75;1.35;;;;;;;;;;10263063;28;20125;-89
2023/05/11 23:07:58;;;;;;;1.63;1.52;;;;;;;;;;10264833;28;20082;-89
2023/05/11 23:13:11;;;;;;;1.95;1.75;;;;;;;;;;10264440;28;20039;-91
2023/05/11 23:18:27;;;;;;;2.28;1.85;;;;;;;;;;10256619;28;20050;-88
2023/05/11 23:23:47;;;;;;;2.97;1.98;;;;;;;;;;10253959;28;20054;-90
2023/05/11 23:29:00;;;;;;;1.95;1.67;;;;;;;;;;10263794;28;20508;-88
2023/05/11 23:34:17;;;;;;;2.15;1.60;;;;;;;;;;10263517;28;20756;-88
2023/05/11 23:39:28;;;;;;;2.15;1.95;;;;;;;;;;10271970;28;20465;-89
2023/05/11 23:44:45;;;;;;;3.75;2.08;;;;;;;;;;10254941;28;20412;-88
2023/05/11 23:49:57;;;;;;;2.15;1.58;;;;;;;;;;10264253;28;20508;-88
2023/05/11 23:55:08;;;;;;;3.63;1.60;;;;;;;;;;10263468;28;20043;-90
